MSC Orchestra — 3EJF3 — position and weather

sailwx.info

Track history (hours):
 
Tides and Currents Weather Stations Pressure Air Temp Water Temp Dewpoint Dewpoint Depression Visibility Wind Speed Wind Dir Waves Ship Positions

MSC Orchestra

Last reported at 2017-Nov-25 04:01 UTC. Time now 2017-Nov-25 04:08 UTC.
Position N 43°54' E 009°20'.

Length 294 m; draft 7.8 m.

Type: Ship. MMSI: 372497000.

Date/timePositionNaut miles runAvg speedWind from/ knotsBaromVisibWave heightAir tempDewpointWater temp
2017-Nov-25 04:01N 43°54' E 009°20'816.8
2017-Nov-25 03:31N 43°47' E 009°26'816.8
2017-Nov-25 03:01N 43°39' E 009°32'917.2
2017-Nov-25 02:31N 43°32' E 009°38'917.3
2017-Nov-25 02:01N 43°25' E 009°44'816.8
2017-Nov-25 01:31N 43°17' E 009°50'816.9
2017-Nov-25 01:01N 43°10' E 009°55'816.8
2017-Nov-25 00:30N 43°02' E 009°59'2416.2
2017-Nov-24 23:02N 42°39' E 010°09'517.2
2017-Nov-24 22:45N 42°36' E 010°14'617.3
2017-Nov-24 22:23N 42°32' E 010°21'1017.4
2017-Nov-24 21:48N 42°26' E 010°31'30110.9
2017-Nov-23 18:16N 38°49' E 015°06'520.8
2017-Nov-23 18:00N 38°45' E 015°10'1020.7
2017-Nov-23 17:30N 38°38' E 015°20'1020.7
2017-Nov-23 17:00N 38°30' E 015°29'1020.7
2017-Nov-23 16:30N 38°24' E 015°39'815.4
2017-Nov-23 15:58N 38°16' E 015°41'817.0
2017-Nov-23 15:30N 38°09' E 015°36'918.1
2017-Nov-23 15:00N 37°60' E 015°36'918.6
2017-Nov-23 14:30N 37°53' E 015°44'1019.4
2017-Nov-23 14:00N 37°50' E 015°56'35819.5
2017-Nov-22 19:36N 36°24' E 023°12'219.3
2017-Nov-22 19:30N 36°25' E 023°14'  
2017-Nov-18 15:53N 36°03' E 014°46'718.4
2017-Nov-18 15:30N 35°59' E 014°39'8 0.8
2017-Nov-18 06:17N 35°54' E 014°31'2 8.7
2017-Nov-18 06:00N 35°56' E 014°33'816.5
2017-Nov-18 05:30N 36°03' E 014°29'917.8
2017-Nov-18 05:00N 36°11' E 014°23'917.8
2017-Nov-18 04:30N 36°18' E 014°17'917.9
2017-Nov-18 04:01N 36°24' E 014°09'918.0
2017-Nov-18 03:30N 36°30' E 014°01'918.1
2017-Nov-18 03:00N 36°37' E 013°53'918.3
2017-Nov-18 02:30N 36°43' E 013°45'918.4
2017-Nov-18 02:00N 36°50' E 013°37'918.5
2017-Nov-18 01:30N 36°56' E 013°28'58718.6
2017-Nov-16 17:56N 41°18' E 002°10'1 0.1
2017-Nov-16 06:37N 41°18' E 002°10'16816.2
2017-Nov-15 20:14N 43°09' E 005°02'416.6
2017-Nov-15 20:00N 43°11' E 005°05'816.4
2017-Nov-15 19:30N 43°18' E 005°12'6 2.3
2017-Nov-15 16:45N 43°21' E 005°20'0 0.0
2017-Nov-15 16:24N 43°21' E 005°20'0 0.0
2017-Nov-15 15:21N 43°21' E 005°20'0 0.0
2017-Nov-15 14:50N 43°21' E 005°20'0 0.0
2017-Nov-15 14:14N 43°21' E 005°20'0 0.0
2017-Nov-15 13:59N 43°21' E 005°20'0 0.0
2017-Nov-15 13:26N 43°21' E 005°20'0 0.0
2017-Nov-15 12:50N 43°21' E 005°20'0 0.0
2017-Nov-15 12:28N 43°21' E 005°20'0 0.0
2017-Nov-15 11:58N 43°21' E 005°20'0 0.0
2017-Nov-15 11:22N 43°21' E 005°20'0 0.0
2017-Nov-15 10:55N 43°21' E 005°20'0 0.0
2017-Nov-15 10:31N 43°21' E 005°20'0 0.0
2017-Nov-15 10:00N 43°21' E 005°20'0 0.0
2017-Nov-15 09:12N 43°21' E 005°20'0 0.0
2017-Nov-15 08:57N 43°21' E 005°20'0 0.0
2017-Nov-15 08:24N 43°21' E 005°20'0 0.0
2017-Nov-15 07:44N 43°21' E 005°20'0 0.0
2017-Nov-15 07:29N 43°21' E 005°20'0 0.0
2017-Nov-15 06:59N 43°21' E 005°20'0 0.0
2017-Nov-15 06:23N 43°21' E 005°20'0 0.0
2017-Nov-15 05:53N 43°21' E 005°20'0 0.0
2017-Nov-15 05:28N 43°21' E 005°20'0 0.0
2017-Nov-15 04:58N 43°21' E 005°20'0 0.0
2017-Nov-15 04:28N 43°21' E 005°20'  
Track history (hours):
 
Tides and Currents Weather Stations Pressure Air Temp Water Temp Dewpoint Dewpoint Depression Visibility Wind Speed Wind Dir Waves Ship Positions

MSC Orchestra

Last reported at 2017-Nov-25 04:01 UTC. Time now 2017-Nov-25 04:08 UTC.
Position N 43°54' E 009°20'.

Length 294 m; draft 7.8 m.

Type: Ship. MMSI: 372497000.

Date/timePositionNaut miles runAvg speedWind from/ knotsBaromVisibWave heightAir tempDewpointWater temp
2017-Nov-25 04:01N 43°54' E 009°20'816.8
2017-Nov-25 03:31N 43°47' E 009°26'816.8
2017-Nov-25 03:01N 43°39' E 009°32'917.2
2017-Nov-25 02:31N 43°32' E 009°38'917.3
2017-Nov-25 02:01N 43°25' E 009°44'816.8
2017-Nov-25 01:31N 43°17' E 009°50'816.9
2017-Nov-25 01:01N 43°10' E 009°55'816.8
2017-Nov-25 00:30N 43°02' E 009°59'2416.2
2017-Nov-24 23:02N 42°39' E 010°09'517.2
2017-Nov-24 22:45N 42°36' E 010°14'617.3
2017-Nov-24 22:23N 42°32' E 010°21'1017.4
2017-Nov-24 21:48N 42°26' E 010°31'30110.9
2017-Nov-23 18:16N 38°49' E 015°06'520.8
2017-Nov-23 18:00N 38°45' E 015°10'1020.7
2017-Nov-23 17:30N 38°38' E 015°20'1020.7
2017-Nov-23 17:00N 38°30' E 015°29'1020.7
2017-Nov-23 16:30N 38°24' E 015°39'815.4
2017-Nov-23 15:58N 38°16' E 015°41'817.0
2017-Nov-23 15:30N 38°09' E 015°36'918.1
2017-Nov-23 15:00N 37°60' E 015°36'918.6
2017-Nov-23 14:30N 37°53' E 015°44'1019.4
2017-Nov-23 14:00N 37°50' E 015°56'35819.5
2017-Nov-22 19:36N 36°24' E 023°12'219.3
2017-Nov-22 19:30N 36°25' E 023°14'  
2017-Nov-18 15:53N 36°03' E 014°46'718.4
2017-Nov-18 15:30N 35°59' E 014°39'8 0.8
2017-Nov-18 06:17N 35°54' E 014°31'2 8.7
2017-Nov-18 06:00N 35°56' E 014°33'816.5
2017-Nov-18 05:30N 36°03' E 014°29'917.8
2017-Nov-18 05:00N 36°11' E 014°23'917.8
2017-Nov-18 04:30N 36°18' E 014°17'917.9
2017-Nov-18 04:01N 36°24' E 014°09'918.0
2017-Nov-18 03:30N 36°30' E 014°01'918.1
2017-Nov-18 03:00N 36°37' E 013°53'918.3
2017-Nov-18 02:30N 36°43' E 013°45'918.4
2017-Nov-18 02:00N 36°50' E 013°37'918.5
2017-Nov-18 01:30N 36°56' E 013°28'58718.6
2017-Nov-16 17:56N 41°18' E 002°10'1 0.1
2017-Nov-16 06:37N 41°18' E 002°10'16816.2
2017-Nov-15 20:14N 43°09' E 005°02'416.6
2017-Nov-15 20:00N 43°11' E 005°05'816.4
2017-Nov-15 19:30N 43°18' E 005°12'6 2.3
2017-Nov-15 16:45N 43°21' E 005°20'0 0.0
2017-Nov-15 16:24N 43°21' E 005°20'0 0.0
2017-Nov-15 15:21N 43°21' E 005°20'0 0.0
2017-Nov-15 14:50N 43°21' E 005°20'0 0.0
2017-Nov-15 14:14N 43°21' E 005°20'0 0.0
2017-Nov-15 13:59N 43°21' E 005°20'0 0.0
2017-Nov-15 13:26N 43°21' E 005°20'0 0.0
2017-Nov-15 12:50N 43°21' E 005°20'0 0.0
2017-Nov-15 12:28N 43°21' E 005°20'0 0.0
2017-Nov-15 11:58N 43°21' E 005°20'0 0.0
2017-Nov-15 11:22N 43°21' E 005°20'0 0.0
2017-Nov-15 10:55N 43°21' E 005°20'0 0.0
2017-Nov-15 10:31N 43°21' E 005°20'0 0.0
2017-Nov-15 10:00N 43°21' E 005°20'0 0.0
2017-Nov-15 09:12N 43°21' E 005°20'0 0.0
2017-Nov-15 08:57N 43°21' E 005°20'0 0.0
2017-Nov-15 08:24N 43°21' E 005°20'0 0.0
2017-Nov-15 07:44N 43°21' E 005°20'0 0.0
2017-Nov-15 07:29N 43°21' E 005°20'0 0.0
2017-Nov-15 06:59N 43°21' E 005°20'0 0.0
2017-Nov-15 06:23N 43°21' E 005°20'0 0.0
2017-Nov-15 05:53N 43°21' E 005°20'0 0.0
2017-Nov-15 05:28N 43°21' E 005°20'0 0.0
2017-Nov-15 04:58N 43°21' E 005°20'0 0.0
2017-Nov-15 04:28N 43°21' E 005°20'  

Dump ship's entire track history